sensor_id;sensor_type;location;lat;lon;timestamp;P1;durP1;ratioP1;P2;durP2;ratioP2
20181;SDS011;10250;50.756;6.172;2023-05-14T00:00:03;12.07;;;4.20;;
20181;SDS011;10250;50.756;6.172;2023-05-14T00:02:05;12.37;;;4.20;;
20181;SDS011;10250;50.756;6.172;2023-05-14T00:04:06;14.87;;;4.40;;
20181;SDS011;10250;50.756;6.172;2023-05-14T00:06:07;13.23;;;4.20;;
20181;SDS011;10250;50.756;6.172;2023-05-14T00:08:09;12.53;;;3.90;;
20181;SDS011;10250;50.756;6.172;2023-05-14T00:10:10;15.93;;;4.00;;
20181;SDS011;10250;50.756;6.172;2023-05-14T00:12:11;13.03;;;4.37;;
20181;SDS011;10250;50.756;6.172;2023-05-14T00:14:12;12.30;;;3.90;;
20181;SDS011;10250;50.756;6.172;2023-05-14T00:16:13;14.53;;;4.80;;
20181;SDS011;10250;50.756;6.172;2023-05-14T00:18:14;12.27;;;4.13;;
20181;SDS011;10250;50.756;6.172;2023-05-14T00:20:15;14.13;;;4.20;;
20181;SDS011;10250;50.756;6.172;2023-05-14T00:22:17;12.87;;;4.33;;
20181;SDS011;10250;50.756;6.172;2023-05-14T00:24:17;13.30;;;4.23;;
20181;SDS011;10250;50.756;6.172;2023-05-14T00:26:18;12.47;;;4.13;;
20181;SDS011;10250;50.756;6.172;2023-05-14T00:28:20;12.20;;;3.90;;
20181;SDS011;10250;50.756;6.172;2023-05-14T00:30:21;12.20;;;4.10;;
20181;SDS011;10250;50.756;6.172;2023-05-14T00:32:22;12.53;;;4.10;;
20181;SDS011;10250;50.756;6.172;2023-05-14T00:34:23;14.83;;;4.80;;
20181;SDS011;10250;50.756;6.172;2023-05-14T00:36:24;15.63;;;4.83;;
20181;SDS011;10250;50.756;6.172;2023-05-14T00:38:25;14.10;;;4.67;;
20181;SDS011;10250;50.756;6.172;2023-05-14T00:40:27;14.60;;;4.33;;
20181;SDS011;10250;50.756;6.172;2023-05-14T00:42:28;15.03;;;4.90;;
20181;SDS011;10250;50.756;6.172;2023-05-14T00:44:29;14.43;;;4.93;;
20181;SDS011;10250;50.756;6.172;2023-05-14T00:46:30;14.77;;;5.33;;
20181;SDS011;10250;50.756;6.172;2023-05-14T00:48:31;14.20;;;5.03;;
20181;SDS011;10250;50.756;6.172;2023-05-14T00:50:33;14.43;;;4.70;;
20181;SDS011;10250;50.756;6.172;2023-05-14T00:52:34;15.43;;;5.03;;
20181;SDS011;10250;50.756;6.172;2023-05-14T00:54:35;12.83;;;4.07;;
20181;SDS011;10250;50.756;6.172;2023-05-14T00:56:36;14.00;;;4.10;;
20181;SDS011;10250;50.756;6.172;2023-05-14T00:58:37;13.80;;;4.07;;
20181;SDS011;10250;50.756;6.172;2023-05-14T01:00:39;13.37;;;3.67;;
20181;SDS011;10250;50.756;6.172;2023-05-14T01:02:40;12.07;;;3.60;;
20181;SDS011;10250;50.756;6.172;2023-05-14T01:04:41;12.10;;;3.77;;
20181;SDS011;10250;50.756;6.172;2023-05-14T01:09:16;10.87;;;3.40;;
20181;SDS011;10250;50.756;6.172;2023-05-14T01:11:19;12.43;;;3.87;;
20181;SDS011;10250;50.756;6.172;2023-05-14T01:13:45;12.03;;;3.83;;
20181;SDS011;10250;50.756;6.172;2023-05-14T01:15:43;12.20;;;3.90;;
20181;SDS011;10250;50.756;6.172;2023-05-14T01:17:59;12.70;;;3.73;;
20181;SDS011;10250;50.756;6.172;2023-05-14T01:20:01;12.43;;;3.53;;
20181;SDS011;10250;50.756;6.172;2023-05-14T01:22:02;10.83;;;3.47;;
20181;SDS011;10250;50.756;6.172;2023-05-14T01:24:03;12.70;;;3.80;;
20181;SDS011;10250;50.756;6.172;2023-05-14T01:26:04;11.20;;;3.40;;
20181;SDS011;10250;50.756;6.172;2023-05-14T01:28:08;12.27;;;3.70;;
20181;SDS011;10250;50.756;6.172;2023-05-14T01:30:14;10.57;;;3.37;;
20181;SDS011;10250;50.756;6.172;2023-05-14T01:32:17;13.23;;;4.10;;
20181;SDS011;10250;50.756;6.172;2023-05-14T01:34:21;13.03;;;4.23;;
20181;SDS011;10250;50.756;6.172;2023-05-14T01:36:22;13.53;;;4.00;;
20181;SDS011;10250;50.756;6.172;2023-05-14T01:38:23;13.13;;;4.13;;
20181;SDS011;10250;50.756;6.172;2023-05-14T01:40:26;13.80;;;4.17;;
20181;SDS011;10250;50.756;6.172;2023-05-14T01:42:27;11.50;;;3.83;;
20181;SDS011;10250;50.756;6.172;2023-05-14T01:44:28;14.30;;;4.33;;
20181;SDS011;10250;50.756;6.172;2023-05-14T01:46:30;11.97;;;3.80;;
20181;SDS011;10250;50.756;6.172;2023-05-14T01:48:32;13.00;;;3.93;;
20181;SDS011;10250;50.756;6.172;2023-05-14T01:50:33;13.07;;;3.70;;
20181;SDS011;10250;50.756;6.172;2023-05-14T01:52:34;12.93;;;4.20;;
20181;SDS011;10250;50.756;6.172;2023-05-14T01:54:35;13.03;;;4.33;;
20181;SDS011;10250;50.756;6.172;2023-05-14T01:56:36;12.73;;;3.97;;
20181;SDS011;10250;50.756;6.172;2023-05-14T01:58:37;14.40;;;4.50;;
20181;SDS011;10250;50.756;6.172;2023-05-14T02:00:38;12.07;;;3.80;;
20181;SDS011;10250;50.756;6.172;2023-05-14T02:02:39;12.60;;;3.97;;
20181;SDS011;10250;50.756;6.172;2023-05-14T02:04:40;13.53;;;4.10;;
20181;SDS011;10250;50.756;6.172;2023-05-14T02:06:41;13.43;;;3.80;;
20181;SDS011;10250;50.756;6.172;2023-05-14T02:08:42;14.07;;;4.40;;
20181;SDS011;10250;50.756;6.172;2023-05-14T02:10:43;13.93;;;4.23;;
20181;SDS011;10250;50.756;6.172;2023-05-14T02:12:44;12.00;;;3.80;;
20181;SDS011;10250;50.756;6.172;2023-05-14T02:14:45;13.10;;;4.07;;
20181;SDS011;10250;50.756;6.172;2023-05-14T02:16:46;15.23;;;3.83;;
20181;SDS011;10250;50.756;6.172;2023-05-14T02:18:47;12.40;;;3.80;;
20181;SDS011;10250;50.756;6.172;2023-05-14T02:20:48;14.13;;;4.17;;
20181;SDS011;10250;50.756;6.172;2023-05-14T02:22:49;13.03;;;4.17;;
20181;SDS011;10250;50.756;6.172;2023-05-14T02:24:50;11.77;;;3.90;;
20181;SDS011;10250;50.756;6.172;2023-05-14T02:26:51;12.03;;;3.57;;
20181;SDS011;10250;50.756;6.172;2023-05-14T02:28:52;14.50;;;4.00;;
20181;SDS011;10250;50.756;6.172;2023-05-14T02:31:02;13.83;;;4.60;;
20181;SDS011;10250;50.756;6.172;2023-05-14T02:33:03;13.80;;;3.97;;
20181;SDS011;10250;50.756;6.172;2023-05-14T02:35:04;12.57;;;3.90;;
20181;SDS011;10250;50.756;6.172;2023-05-14T02:37:05;14.27;;;4.07;;
20181;SDS011;10250;50.756;6.172;2023-05-14T02:39:06;13.47;;;4.33;;
20181;SDS011;10250;50.756;6.172;2023-05-14T02:41:07;13.03;;;4.20;;
20181;SDS011;10250;50.756;6.172;2023-05-14T02:43:08;14.03;;;4.33;;
20181;SDS011;10250;50.756;6.172;2023-05-14T02:45:09;12.10;;;3.97;;
20181;SDS011;10250;50.756;6.172;2023-05-14T02:47:10;15.27;;;4.20;;
20181;SDS011;10250;50.756;6.172;2023-05-14T02:49:11;12.40;;;4.07;;
20181;SDS011;10250;50.756;6.172;2023-05-14T02:51:12;13.67;;;4.33;;
20181;SDS011;10250;50.756;6.172;2023-05-14T02:53:13;11.80;;;3.97;;
20181;SDS011;10250;50.756;6.172;2023-05-14T02:55:14;13.40;;;4.33;;
20181;SDS011;10250;50.756;6.172;2023-05-14T02:57:15;13.23;;;4.30;;
20181;SDS011;10250;50.756;6.172;2023-05-14T02:59:16;14.30;;;5.00;;
20181;SDS011;10250;50.756;6.172;2023-05-14T03:01:17;12.93;;;4.37;;
20181;SDS011;10250;50.756;6.172;2023-05-14T03:03:18;12.43;;;4.40;;
20181;SDS011;10250;50.756;6.172;2023-05-14T03:05:19;12.40;;;4.30;;
20181;SDS011;10250;50.756;6.172;2023-05-14T03:07:20;14.37;;;4.60;;
20181;SDS011;10250;50.756;6.172;2023-05-14T03:09:21;13.80;;;4.80;;
20181;SDS011;10250;50.756;6.172;2023-05-14T03:11:22;14.40;;;4.80;;
20181;SDS011;10250;50.756;6.172;2023-05-14T03:13:23;13.53;;;4.87;;
20181;SDS011;10250;50.756;6.172;2023-05-14T03:15:24;14.60;;;5.20;;
20181;SDS011;10250;50.756;6.172;2023-05-14T03:17:25;14.13;;;5.37;;
20181;SDS011;10250;50.756;6.172;2023-05-14T03:19:26;14.37;;;5.20;;
20181;SDS011;10250;50.756;6.172;2023-05-14T03:21:27;15.03;;;5.40;;
20181;SDS011;10250;50.756;6.172;2023-05-14T03:23:28;13.97;;;5.03;;
20181;SDS011;10250;50.756;6.172;2023-05-14T03:25:30;14.90;;;5.17;;
20181;SDS011;10250;50.756;6.172;2023-05-14T03:27:33;14.23;;;4.80;;
20181;SDS011;10250;50.756;6.172;2023-05-14T03:29:34;14.30;;;4.93;;
20181;SDS011;10250;50.756;6.172;2023-05-14T03:31:35;13.47;;;4.90;;
20181;SDS011;10250;50.756;6.172;2023-05-14T03:33:36;17.33;;;5.00;;
20181;SDS011;10250;50.756;6.172;2023-05-14T03:35:37;14.73;;;5.50;;
20181;SDS011;10250;50.756;6.172;2023-05-14T03:37:38;14.67;;;5.10;;
20181;SDS011;10250;50.756;6.172;2023-05-14T03:39:39;13.27;;;4.70;;
20181;SDS011;10250;50.756;6.172;2023-05-14T03:41:40;13.20;;;4.27;;
20181;SDS011;10250;50.756;6.172;2023-05-14T03:43:41;14.43;;;4.60;;
20181;SDS011;10250;50.756;6.172;2023-05-14T03:45:42;12.77;;;4.13;;
20181;SDS011;10250;50.756;6.172;2023-05-14T03:47:43;15.90;;;4.87;;
20181;SDS011;10250;50.756;6.172;2023-05-14T03:49:44;16.17;;;5.03;;
20181;SDS011;10250;50.756;6.172;2023-05-14T03:51:45;13.43;;;4.30;;
20181;SDS011;10250;50.756;6.172;2023-05-14T03:53:46;13.43;;;4.40;;
20181;SDS011;10250;50.756;6.172;2023-05-14T03:55:47;14.43;;;5.13;;
20181;SDS011;10250;50.756;6.172;2023-05-14T03:57:48;12.93;;;4.30;;
20181;SDS011;10250;50.756;6.172;2023-05-14T03:59:49;14.87;;;4.50;;
20181;SDS011;10250;50.756;6.172;2023-05-14T04:01:50;13.53;;;4.63;;
20181;SDS011;10250;50.756;6.172;2023-05-14T04:03:51;14.00;;;4.50;;
20181;SDS011;10250;50.756;6.172;2023-05-14T04:05:52;12.87;;;4.17;;
20181;SDS011;10250;50.756;6.172;2023-05-14T04:07:53;13.60;;;4.47;;
20181;SDS011;10250;50.756;6.172;2023-05-14T04:09:57;13.23;;;4.80;;
20181;SDS011;10250;50.756;6.172;2023-05-14T04:11:58;14.50;;;4.87;;
20181;SDS011;10250;50.756;6.172;2023-05-14T04:13:59;15.17;;;4.13;;
20181;SDS011;10250;50.756;6.172;2023-05-14T04:16:00;15.67;;;4.77;;
20181;SDS011;10250;50.756;6.172;2023-05-14T04:18:01;13.13;;;4.30;;
20181;SDS011;10250;50.756;6.172;2023-05-14T04:20:03;13.17;;;4.40;;
20181;SDS011;10250;50.756;6.172;2023-05-14T04:22:04;13.57;;;4.70;;
20181;SDS011;10250;50.756;6.172;2023-05-14T04:24:05;14.77;;;4.97;;
20181;SDS011;10250;50.756;6.172;2023-05-14T04:26:06;13.50;;;4.70;;
20181;SDS011;10250;50.756;6.172;2023-05-14T04:28:07;15.17;;;4.70;;
20181;SDS011;10250;50.756;6.172;2023-05-14T04:30:08;13.67;;;4.60;;
20181;SDS011;10250;50.756;6.172;2023-05-14T04:32:09;13.20;;;4.70;;
20181;SDS011;10250;50.756;6.172;2023-05-14T04:34:11;15.73;;;4.77;;
20181;SDS011;10250;50.756;6.172;2023-05-14T04:36:12;14.30;;;4.70;;
20181;SDS011;10250;50.756;6.172;2023-05-14T04:38:13;17.17;;;5.00;;
20181;SDS011;10250;50.756;6.172;2023-05-14T04:40:14;12.80;;;4.50;;
20181;SDS011;10250;50.756;6.172;2023-05-14T04:42:18;14.63;;;5.30;;
20181;SDS011;10250;50.756;6.172;2023-05-14T04:44:20;14.80;;;5.00;;
20181;SDS011;10250;50.756;6.172;2023-05-14T04:46:21;13.57;;;5.07;;
20181;SDS011;10250;50.756;6.172;2023-05-14T04:48:22;16.47;;;5.33;;
20181;SDS011;10250;50.756;6.172;2023-05-14T04:50:23;14.70;;;4.97;;
20181;SDS011;10250;50.756;6.172;2023-05-14T04:52:24;16.27;;;5.10;;
20181;SDS011;10250;50.756;6.172;2023-05-14T04:54:25;14.30;;;4.90;;
20181;SDS011;10250;50.756;6.172;2023-05-14T04:56:26;14.20;;;5.17;;
20181;SDS011;10250;50.756;6.172;2023-05-14T04:58:27;19.70;;;5.23;;
20181;SDS011;10250;50.756;6.172;2023-05-14T05:00:30;16.87;;;5.07;;
20181;SDS011;10250;50.756;6.172;2023-05-14T05:02:32;15.13;;;5.37;;
20181;SDS011;10250;50.756;6.172;2023-05-14T05:04:33;15.87;;;5.37;;
20181;SDS011;10250;50.756;6.172;2023-05-14T05:06:34;14.40;;;5.20;;
20181;SDS011;10250;50.756;6.172;2023-05-14T05:08:35;15.00;;;5.30;;
20181;SDS011;10250;50.756;6.172;2023-05-14T05:10:36;15.07;;;5.53;;
20181;SDS011;10250;50.756;6.172;2023-05-14T05:12:37;13.97;;;4.97;;
20181;SDS011;10250;50.756;6.172;2023-05-14T05:14:41;14.70;;;5.40;;
20181;SDS011;10250;50.756;6.172;2023-05-14T05:16:42;15.53;;;5.83;;
20181;SDS011;10250;50.756;6.172;2023-05-14T05:18:44;17.90;;;5.67;;
20181;SDS011;10250;50.756;6.172;2023-05-14T05:20:44;16.20;;;5.63;;
20181;SDS011;10250;50.756;6.172;2023-05-14T05:22:45;14.40;;;5.10;;
20181;SDS011;10250;50.756;6.172;2023-05-14T05:24:46;14.73;;;5.20;;
20181;SDS011;10250;50.756;6.172;2023-05-14T05:26:47;15.67;;;4.90;;
20181;SDS011;10250;50.756;6.172;2023-05-14T05:28:50;15.60;;;5.80;;
20181;SDS011;10250;50.756;6.172;2023-05-14T05:30:51;15.13;;;5.50;;
20181;SDS011;10250;50.756;6.172;2023-05-14T05:32:52;15.37;;;5.77;;
20181;SDS011;10250;50.756;6.172;2023-05-14T05:34:55;15.60;;;5.60;;
20181;SDS011;10250;50.756;6.172;2023-05-14T05:36:57;17.00;;;5.53;;
20181;SDS011;10250;50.756;6.172;2023-05-14T05:38:57;15.30;;;5.63;;
20181;SDS011;10250;50.756;6.172;2023-05-14T05:40:58;15.20;;;5.87;;
20181;SDS011;10250;50.756;6.172;2023-05-14T05:42:59;16.83;;;6.63;;
20181;SDS011;10250;50.756;6.172;2023-05-14T05:45:00;16.23;;;5.53;;
20181;SDS011;10250;50.756;6.172;2023-05-14T05:47:01;16.70;;;6.10;;
20181;SDS011;10250;50.756;6.172;2023-05-14T05:49:02;15.40;;;5.47;;
20181;SDS011;10250;50.756;6.172;2023-05-14T05:51:03;17.80;;;6.37;;
20181;SDS011;10250;50.756;6.172;2023-05-14T05:53:04;14.77;;;5.27;;
20181;SDS011;10250;50.756;6.172;2023-05-14T05:55:05;17.30;;;6.47;;
20181;SDS011;10250;50.756;6.172;2023-05-14T05:57:07;15.27;;;6.10;;
20181;SDS011;10250;50.756;6.172;2023-05-14T05:59:08;17.37;;;6.00;;
20181;SDS011;10250;50.756;6.172;2023-05-14T06:01:09;16.97;;;6.23;;
20181;SDS011;10250;50.756;6.172;2023-05-14T06:03:10;15.07;;;5.87;;
20181;SDS011;10250;50.756;6.172;2023-05-14T06:05:11;15.80;;;6.03;;
20181;SDS011;10250;50.756;6.172;2023-05-14T06:07:12;16.73;;;6.10;;
20181;SDS011;10250;50.756;6.172;2023-05-14T06:09:13;14.57;;;5.83;;
20181;SDS011;10250;50.756;6.172;2023-05-14T06:11:15;14.87;;;5.67;;
20181;SDS011;10250;50.756;6.172;2023-05-14T06:13:16;14.63;;;5.73;;
20181;SDS011;10250;50.756;6.172;2023-05-14T06:15:17;14.67;;;5.37;;
20181;SDS011;10250;50.756;6.172;2023-05-14T06:17:18;13.43;;;5.57;;
20181;SDS011;10250;50.756;6.172;2023-05-14T06:19:19;16.67;;;5.93;;
20181;SDS011;10250;50.756;6.172;2023-05-14T06:21:20;15.70;;;5.97;;
20181;SDS011;10250;50.756;6.172;2023-05-14T06:23:21;14.17;;;5.77;;
20181;SDS011;10250;50.756;6.172;2023-05-14T06:25:22;15.00;;;5.97;;
20181;SDS011;10250;50.756;6.172;2023-05-14T06:27:23;15.97;;;6.67;;
20181;SDS011;10250;50.756;6.172;2023-05-14T06:29:24;15.90;;;6.30;;
20181;SDS011;10250;50.756;6.172;2023-05-14T06:31:25;16.70;;;6.67;;
20181;SDS011;10250;50.756;6.172;2023-05-14T06:33:26;14.83;;;6.13;;
20181;SDS011;10250;50.756;6.172;2023-05-14T06:35:30;17.80;;;6.87;;
20181;SDS011;10250;50.756;6.172;2023-05-14T06:37:32;14.70;;;5.87;;
20181;SDS011;10250;50.756;6.172;2023-05-14T06:39:33;16.60;;;6.33;;
20181;SDS011;10250;50.756;6.172;2023-05-14T06:41:34;15.00;;;5.83;;
20181;SDS011;10250;50.756;6.172;2023-05-14T06:43:46;14.73;;;5.77;;
20181;SDS011;10250;50.756;6.172;2023-05-14T06:45:48;16.47;;;6.63;;
20181;SDS011;10250;50.756;6.172;2023-05-14T06:47:49;15.97;;;6.13;;
20181;SDS011;10250;50.756;6.172;2023-05-14T06:49:50;15.43;;;6.20;;
20181;SDS011;10250;50.756;6.172;2023-05-14T06:51:51;16.23;;;6.70;;
20181;SDS011;10250;50.756;6.172;2023-05-14T06:53:53;15.80;;;6.83;;
20181;SDS011;10250;50.756;6.172;2023-05-14T06:55:54;16.80;;;7.37;;
20181;SDS011;10250;50.756;6.172;2023-05-14T06:57:55;17.57;;;7.30;;
20181;SDS011;10250;50.756;6.172;2023-05-14T06:59:56;18.30;;;7.20;;
20181;SDS011;10250;50.756;6.172;2023-05-14T07:01:57;16.07;;;6.80;;
20181;SDS011;10250;50.756;6.172;2023-05-14T07:03:58;16.37;;;6.70;;
20181;SDS011;10250;50.756;6.172;2023-05-14T07:05:59;17.90;;;6.80;;
20181;SDS011;10250;50.756;6.172;2023-05-14T07:08:00;16.47;;;6.93;;
20181;SDS011;10250;50.756;6.172;2023-05-14T07:10:02;15.77;;;7.03;;
20181;SDS011;10250;50.756;6.172;2023-05-14T07:12:03;16.77;;;6.90;;
20181;SDS011;10250;50.756;6.172;2023-05-14T07:14:04;17.63;;;6.73;;
20181;SDS011;10250;50.756;6.172;2023-05-14T07:16:05;17.63;;;6.67;;
20181;SDS011;10250;50.756;6.172;2023-05-14T07:18:08;16.37;;;6.47;;
20181;SDS011;10250;50.756;6.172;2023-05-14T07:20:09;16.10;;;6.50;;
20181;SDS011;10250;50.756;6.172;2023-05-14T07:22:10;15.37;;;5.93;;
20181;SDS011;10250;50.756;6.172;2023-05-14T07:24:11;17.03;;;6.50;;
20181;SDS011;10250;50.756;6.172;2023-05-14T07:26:12;17.30;;;6.87;;
20181;SDS011;10250;50.756;6.172;2023-05-14T07:28:13;18.20;;;8.13;;
20181;SDS011;10250;50.756;6.172;2023-05-14T07:30:14;16.83;;;7.23;;
20181;SDS011;10250;50.756;6.172;2023-05-14T07:32:15;19.87;;;9.10;;
20181;SDS011;10250;50.756;6.172;2023-05-14T07:34:16;18.20;;;8.07;;
20181;SDS011;10250;50.756;6.172;2023-05-14T07:36:18;18.97;;;7.87;;
20181;SDS011;10250;50.756;6.172;2023-05-14T07:38:19;18.97;;;8.43;;
20181;SDS011;10250;50.756;6.172;2023-05-14T07:40:20;18.73;;;8.03;;
20181;SDS011;10250;50.756;6.172;2023-05-14T07:42:23;18.73;;;8.57;;
20181;SDS011;10250;50.756;6.172;2023-05-14T07:44:26;20.40;;;8.73;;
20181;SDS011;10250;50.756;6.172;2023-05-14T07:46:26;19.57;;;9.23;;
20181;SDS011;10250;50.756;6.172;2023-05-14T07:48:27;19.73;;;8.93;;
20181;SDS011;10250;50.756;6.172;2023-05-14T07:50:29;20.90;;;9.63;;
20181;SDS011;10250;50.756;6.172;2023-05-14T07:52:30;20.50;;;9.13;;
20181;SDS011;10250;50.756;6.172;2023-05-14T07:54:31;20.50;;;9.30;;
20181;SDS011;10250;50.756;6.172;2023-05-14T07:56:32;20.20;;;9.37;;
20181;SDS011;10250;50.756;6.172;2023-05-14T07:58:33;20.23;;;8.93;;
20181;SDS011;10250;50.756;6.172;2023-05-14T08:00:34;20.90;;;8.83;;
20181;SDS011;10250;50.756;6.172;2023-05-14T08:02:35;20.83;;;9.30;;
20181;SDS011;10250;50.756;6.172;2023-05-14T08:04:37;21.70;;;10.03;;
20181;SDS011;10250;50.756;6.172;2023-05-14T08:06:38;21.60;;;9.70;;
20181;SDS011;10250;50.756;6.172;2023-05-14T08:08:39;20.60;;;9.90;;
20181;SDS011;10250;50.756;6.172;2023-05-14T08:10:40;21.67;;;9.80;;
20181;SDS011;10250;50.756;6.172;2023-05-14T08:12:41;22.43;;;10.03;;
20181;SDS011;10250;50.756;6.172;2023-05-14T08:14:42;22.77;;;10.33;;
20181;SDS011;10250;50.756;6.172;2023-05-14T08:16:43;21.47;;;9.87;;
20181;SDS011;10250;50.756;6.172;2023-05-14T08:18:44;23.80;;;10.47;;
20181;SDS011;10250;50.756;6.172;2023-05-14T08:20:45;21.63;;;10.07;;
20181;SDS011;10250;50.756;6.172;2023-05-14T08:22:46;23.47;;;10.57;;
20181;SDS011;10250;50.756;6.172;2023-05-14T08:24:47;24.43;;;10.50;;
20181;SDS011;10250;50.756;6.172;2023-05-14T08:26:48;21.90;;;10.63;;
20181;SDS011;10250;50.756;6.172;2023-05-14T08:28:49;20.97;;;9.50;;
20181;SDS011;10250;50.756;6.172;2023-05-14T08:30:50;22.70;;;9.47;;
20181;SDS011;10250;50.756;6.172;2023-05-14T08:32:51;25.20;;;11.63;;
20181;SDS011;10250;50.756;6.172;2023-05-14T08:34:52;24.90;;;10.90;;
20181;SDS011;10250;50.756;6.172;2023-05-14T08:36:53;27.07;;;12.43;;
20181;SDS011;10250;50.756;6.172;2023-05-14T08:38:54;23.33;;;10.87;;
20181;SDS011;10250;50.756;6.172;2023-05-14T08:40:56;23.17;;;10.90;;
20181;SDS011;10250;50.756;6.172;2023-05-14T08:42:57;25.93;;;12.40;;
20181;SDS011;10250;50.756;6.172;2023-05-14T08:45:00;26.67;;;12.47;;
20181;SDS011;10250;50.756;6.172;2023-05-14T08:47:01;26.40;;;12.20;;
20181;SDS011;10250;50.756;6.172;2023-05-14T08:49:14;26.67;;;12.97;;
20181;SDS011;10250;50.756;6.172;2023-05-14T08:51:16;26.37;;;12.73;;
20181;SDS011;10250;50.756;6.172;2023-05-14T08:53:17;26.50;;;12.23;;
20181;SDS011;10250;50.756;6.172;2023-05-14T08:55:18;24.27;;;11.90;;
20181;SDS011;10250;50.756;6.172;2023-05-14T08:57:19;26.17;;;12.73;;
20181;SDS011;10250;50.756;6.172;2023-05-14T08:59:23;30.57;;;14.33;;
20181;SDS011;10250;50.756;6.172;2023-05-14T09:01:24;27.50;;;13.50;;
20181;SDS011;10250;50.756;6.172;2023-05-14T09:03:25;32.30;;;14.67;;
20181;SDS011;10250;50.756;6.172;2023-05-14T09:05:26;29.93;;;13.73;;
20181;SDS011;10250;50.756;6.172;2023-05-14T09:07:27;33.40;;;15.43;;
20181;SDS011;10250;50.756;6.172;2023-05-14T09:09:28;29.67;;;15.27;;
20181;SDS011;10250;50.756;6.172;2023-05-14T09:11:30;31.43;;;15.77;;
20181;SDS011;10250;50.756;6.172;2023-05-14T09:13:31;31.47;;;16.47;;
20181;SDS011;10250;50.756;6.172;2023-05-14T09:15:32;30.47;;;15.60;;
20181;SDS011;10250;50.756;6.172;2023-05-14T09:17:34;34.87;;;17.47;;
20181;SDS011;10250;50.756;6.172;2023-05-14T09:19:35;35.83;;;17.10;;
20181;SDS011;10250;50.756;6.172;2023-05-14T09:21:39;36.03;;;18.47;;
20181;SDS011;10250;50.756;6.172;2023-05-14T09:23:41;30.97;;;15.67;;
20181;SDS011;10250;50.756;6.172;2023-05-14T09:25:43;32.93;;;16.93;;
20181;SDS011;10250;50.756;6.172;2023-05-14T09:27:45;34.07;;;16.77;;
20181;SDS011;10250;50.756;6.172;2023-05-14T09:29:49;34.30;;;18.03;;
20181;SDS011;10250;50.756;6.172;2023-05-14T09:31:50;34.70;;;17.27;;
20181;SDS011;10250;50.756;6.172;2023-05-14T09:33:51;33.23;;;17.27;;
20181;SDS011;10250;50.756;6.172;2023-05-14T09:35:59;35.87;;;17.33;;
20181;SDS011;10250;50.756;6.172;2023-05-14T09:38:00;31.33;;;16.23;;
20181;SDS011;10250;50.756;6.172;2023-05-14T09:40:07;32.53;;;16.80;;
20181;SDS011;10250;50.756;6.172;2023-05-14T09:42:08;30.30;;;16.90;;
20181;SDS011;10250;50.756;6.172;2023-05-14T09:44:09;33.57;;;17.03;;
20181;SDS011;10250;50.756;6.172;2023-05-14T09:46:10;35.17;;;17.87;;
20181;SDS011;10250;50.756;6.172;2023-05-14T09:48:11;36.43;;;18.93;;
20181;SDS011;10250;50.756;6.172;2023-05-14T09:50:12;34.43;;;18.57;;
20181;SDS011;10250;50.756;6.172;2023-05-14T09:52:13;35.87;;;17.70;;
20181;SDS011;10250;50.756;6.172;2023-05-14T09:54:14;33.03;;;17.50;;
20181;SDS011;10250;50.756;6.172;2023-05-14T09:56:15;34.53;;;18.37;;
20181;SDS011;10250;50.756;6.172;2023-05-14T09:58:17;33.97;;;17.40;;
20181;SDS011;10250;50.756;6.172;2023-05-14T10:00:18;32.60;;;17.57;;
20181;SDS011;10250;50.756;6.172;2023-05-14T10:02:23;34.20;;;16.40;;
20181;SDS011;10250;50.756;6.172;2023-05-14T10:04:25;32.73;;;16.07;;
20181;SDS011;10250;50.756;6.172;2023-05-14T10:06:30;31.10;;;16.10;;
20181;SDS011;10250;50.756;6.172;2023-05-14T10:08:33;32.57;;;16.73;;
20181;SDS011;10250;50.756;6.172;2023-05-14T10:10:34;32.20;;;16.43;;
20181;SDS011;10250;50.756;6.172;2023-05-14T10:12:37;34.63;;;16.97;;
20181;SDS011;10250;50.756;6.172;2023-05-14T10:14:39;36.73;;;17.73;;
20181;SDS011;10250;50.756;6.172;2023-05-14T10:16:41;34.83;;;16.77;;
20181;SDS011;10250;50.756;6.172;2023-05-14T10:18:45;34.70;;;18.43;;
20181;SDS011;10250;50.756;6.172;2023-05-14T10:20:59;33.93;;;18.20;;
20181;SDS011;10250;50.756;6.172;2023-05-14T10:23:02;33.97;;;17.07;;
20181;SDS011;10250;50.756;6.172;2023-05-14T10:25:03;37.10;;;17.57;;
20181;SDS011;10250;50.756;6.172;2023-05-14T10:27:04;32.63;;;16.77;;
20181;SDS011;10250;50.756;6.172;2023-05-14T10:29:06;32.57;;;16.37;;
20181;SDS011;10250;50.756;6.172;2023-05-14T10:31:09;33.77;;;17.33;;
20181;SDS011;10250;50.756;6.172;2023-05-14T10:33:11;37.60;;;18.23;;
20181;SDS011;10250;50.756;6.172;2023-05-14T10:35:18;35.83;;;17.57;;
20181;SDS011;10250;50.756;6.172;2023-05-14T10:37:25;36.33;;;18.33;;
20181;SDS011;10250;50.756;6.172;2023-05-14T10:41:46;35.87;;;17.57;;
20181;SDS011;10250;50.756;6.172;2023-05-14T10:43:47;32.57;;;17.33;;
20181;SDS011;10250;50.756;6.172;2023-05-14T10:45:48;33.60;;;18.37;;
20181;SDS011;10250;50.756;6.172;2023-05-14T10:47:49;35.83;;;18.30;;
20181;SDS011;10250;50.756;6.172;2023-05-14T10:49:52;34.40;;;17.17;;
20181;SDS011;10250;50.756;6.172;2023-05-14T10:51:53;35.83;;;17.30;;
20181;SDS011;10250;50.756;6.172;2023-05-14T10:53:56;31.10;;;15.40;;
20181;SDS011;10250;50.756;6.172;2023-05-14T10:55:57;32.37;;;16.40;;
20181;SDS011;10250;50.756;6.172;2023-05-14T10:57:58;33.43;;;16.43;;
20181;SDS011;10250;50.756;6.172;2023-05-14T11:00:00;34.17;;;17.40;;
20181;SDS011;10250;50.756;6.172;2023-05-14T11:02:03;33.33;;;17.47;;
20181;SDS011;10250;50.756;6.172;2023-05-14T11:04:04;34.57;;;16.93;;
20181;SDS011;10250;50.756;6.172;2023-05-14T11:06:06;33.27;;;16.57;;
20181;SDS011;10250;50.756;6.172;2023-05-14T11:08:07;32.23;;;16.53;;
20181;SDS011;10250;50.756;6.172;2023-05-14T11:10:09;30.80;;;16.37;;
20181;SDS011;10250;50.756;6.172;2023-05-14T11:12:10;33.80;;;16.03;;
20181;SDS011;10250;50.756;6.172;2023-05-14T11:14:11;31.03;;;15.30;;
20181;SDS011;10250;50.756;6.172;2023-05-14T11:16:12;35.80;;;15.60;;
20181;SDS011;10250;50.756;6.172;2023-05-14T11:18:27;29.03;;;14.37;;
20181;SDS011;10250;50.756;6.172;2023-05-14T11:20:29;32.77;;;15.00;;
20181;SDS011;10250;50.756;6.172;2023-05-14T11:22:31;28.83;;;14.70;;
20181;SDS011;10250;50.756;6.172;2023-05-14T11:24:33;30.00;;;14.63;;
20181;SDS011;10250;50.756;6.172;2023-05-14T11:26:34;31.17;;;14.40;;
20181;SDS011;10250;50.756;6.172;2023-05-14T11:28:35;30.90;;;14.47;;
20181;SDS011;10250;50.756;6.172;2023-05-14T11:30:37;26.73;;;14.00;;
20181;SDS011;10250;50.756;6.172;2023-05-14T11:32:38;28.57;;;13.03;;
20181;SDS011;10250;50.756;6.172;2023-05-14T11:34:40;29.67;;;13.80;;
20181;SDS011;10250;50.756;6.172;2023-05-14T11:36:41;28.63;;;13.67;;
20181;SDS011;10250;50.756;6.172;2023-05-14T11:38:46;27.20;;;13.63;;
20181;SDS011;10250;50.756;6.172;2023-05-14T11:40:51;28.23;;;13.20;;
20181;SDS011;10250;50.756;6.172;2023-05-14T11:42:53;27.90;;;13.20;;
20181;SDS011;10250;50.756;6.172;2023-05-14T11:44:54;28.23;;;14.70;;
20181;SDS011;10250;50.756;6.172;2023-05-14T11:46:55;27.50;;;13.70;;
20181;SDS011;10250;50.756;6.172;2023-05-14T11:48:56;24.87;;;12.07;;
20181;SDS011;10250;50.756;6.172;2023-05-14T11:50:57;25.47;;;11.97;;
20181;SDS011;10250;50.756;6.172;2023-05-14T11:52:58;29.27;;;13.13;;
20181;SDS011;10250;50.756;6.172;2023-05-14T11:54:59;26.80;;;12.87;;
20181;SDS011;10250;50.756;6.172;2023-05-14T11:57:01;24.23;;;12.40;;
20181;SDS011;10250;50.756;6.172;2023-05-14T11:59:02;25.30;;;11.83;;
20181;SDS011;10250;50.756;6.172;2023-05-14T12:01:03;23.27;;;11.57;;
20181;SDS011;10250;50.756;6.172;2023-05-14T12:05:12;25.63;;;11.90;;